createdAt,value
2023-03-02T00:01:42.841Z,102807.22
2023-03-02T00:04:12.925Z,102818.72
2023-03-02T00:06:39.572Z,102814.22
2023-03-02T00:09:06.526Z,102822.41
2023-03-02T00:11:35.765Z,102817.91
2023-03-02T00:14:02.401Z,102815.16
2023-03-02T00:16:28.962Z,102814.31
2023-03-02T00:18:55.516Z,102812.38
2023-03-02T00:21:24.632Z,102809.78
2023-03-02T00:23:52.256Z,102807.81
2023-03-02T00:26:18.852Z,102806.97
2023-03-02T00:28:45.449Z,102804.38
2023-03-02T00:31:12.016Z,102805.28
2023-03-02T00:33:38.556Z,102789.94
2023-03-02T00:36:05.426Z,102794.59
2023-03-02T00:38:31.988Z,102790.91
2023-03-02T00:40:59.448Z,102792.59
2023-03-02T00:43:28.045Z,102781.88
2023-03-02T00:45:55.139Z,102782.75
2023-03-02T00:48:22.116Z,102776.53
2023-03-02T00:50:48.722Z,102771.16
2023-03-02T00:53:15.311Z,102781.97
2023-03-02T00:55:41.889Z,102773.06
2023-03-02T00:58:08.493Z,102774.63
2023-03-02T01:00:37.091Z,102775.53
2023-03-02T01:03:03.771Z,102771.94
2023-03-02T01:05:30.413Z,102764.78
2023-03-02T01:07:56.976Z,102758.53
2023-03-02T01:10:23.519Z,102764.66
2023-03-02T01:12:50.079Z,102763.81
2023-03-02T01:15:16.626Z,102748.47
2023-03-02T01:17:43.948Z,102754.03
2023-03-02T01:20:11.773Z,102738.47
2023-03-02T01:22:38.347Z,102736.84
2023-03-02T01:25:05.636Z,102733.41
2023-03-02T01:27:32.572Z,102740.56
2023-03-02T01:29:59.137Z,102737.91
2023-03-02T01:32:25.796Z,102734.25
2023-03-02T01:34:52.388Z,102739.59
2023-03-02T01:37:20.748Z,102740.34
2023-03-02T01:39:47.352Z,102734.97
2023-03-02T01:42:13.886Z,102730.53
2023-03-02T01:44:54.163Z,102724.50
2023-03-02T01:47:34.166Z,102734.09
2023-03-02T01:50:04.997Z,102718.94
2023-03-02T01:52:33.731Z,102724.09
2023-03-02T01:55:02.251Z,102714.34
2023-03-02T01:57:33.293Z,102715.22
2023-03-02T02:00:06.638Z,102718.75
2023-03-02T02:02:33.187Z,102722.47
2023-03-02T02:04:59.744Z,102722.41
2023-03-02T02:07:27.897Z,102714.38
2023-03-02T02:09:56.660Z,102713.44
2023-03-02T02:12:23.971Z,102722.38
2023-03-02T02:14:50.720Z,102718.78
2023-03-02T02:17:18.573Z,102715.13
2023-03-02T02:19:55.202Z,102720.56
2023-03-02T02:22:43.586Z,102716.88
2023-03-02T02:25:29.398Z,102727.56
2023-03-02T02:27:56.421Z,102725.78
2023-03-02T02:30:24.438Z,102730.94
2023-03-02T02:32:52.720Z,102718.53
2023-03-02T02:35:22.743Z,102722.94
2023-03-02T02:37:54.754Z,102720.25
2023-03-02T02:40:38.532Z,102718.44
2023-03-02T02:43:04.922Z,102711.41
2023-03-02T02:45:31.517Z,102709.50
2023-03-02T02:47:58.173Z,102713.84
2023-03-02T02:50:28.130Z,102721.88
2023-03-02T02:53:03.221Z,102720.88
2023-03-02T02:55:30.390Z,102723.44
2023-03-02T02:57:59.736Z,102721.63
2023-03-02T03:00:26.699Z,102719.19
2023-03-02T03:03:05.506Z,102718.25
2023-03-02T03:05:32.077Z,102720.06
2023-03-02T03:08:09.102Z,102720.81
2023-03-02T03:10:40.168Z,102723.44
2023-03-02T03:13:10.986Z,102721.63
2023-03-02T03:15:37.773Z,102715.56
2023-03-02T03:18:04.978Z,102714.59
2023-03-02T03:20:31.540Z,102719.66
2023-03-02T03:23:00.523Z,102712.63
2023-03-02T03:25:27.321Z,102703.66
2023-03-02T03:27:53.893Z,102698.28
2023-03-02T03:30:20.514Z,102700.94
2023-03-02T03:32:47.080Z,102707.25
2023-03-02T03:35:13.792Z,102701.81
2023-03-02T03:37:41.275Z,102693.06
2023-03-02T03:40:09.862Z,102694.75
2023-03-02T03:42:37.607Z,102693.00
2023-03-02T03:45:05.124Z,102689.38
2023-03-02T03:47:31.832Z,102696.22
2023-03-02T03:49:58.425Z,102692.84
2023-03-02T03:52:30.849Z,102698.03
2023-03-02T03:55:01.543Z,102704.50
2023-03-02T03:57:29.045Z,102712.19
2023-03-02T03:59:56.367Z,102712.19
2023-03-02T04:02:23.005Z,102715.59
2023-03-02T04:04:49.602Z,102706.59
2023-03-02T04:07:16.664Z,102709.47
2023-03-02T04:09:43.559Z,102713.19
2023-03-02T04:12:10.392Z,102703.16
2023-03-02T04:14:36.953Z,102715.47
2023-03-02T04:17:05.502Z,102715.53
2023-03-02T04:19:32.596Z,102700.44
2023-03-02T04:21:59.551Z,102704.50
2023-03-02T04:24:26.110Z,102709.25
2023-03-02T04:26:52.776Z,102703.88
2023-03-02T04:29:19.521Z,102717.09
2023-03-02T04:31:46.134Z,102698.31
2023-03-02T04:34:12.714Z,102702.91
2023-03-02T04:36:40.033Z,102711.66
2023-03-02T04:39:07.316Z,102708.00
2023-03-02T04:41:34.204Z,102710.19
2023-03-02T04:44:00.880Z,102709.97
2023-03-02T04:46:31.150Z,102708.38
2023-03-02T04:48:57.913Z,102715.31
2023-03-02T04:51:27.999Z,102720.63
2023-03-02T04:54:02.281Z,102717.13
2023-03-02T04:56:28.830Z,102716.91
2023-03-02T04:58:56.573Z,102716.72
2023-03-02T05:01:23.623Z,102713.06
2023-03-02T05:03:50.313Z,102708.84
2023-03-02T05:06:17.027Z,102719.41
2023-03-02T05:08:44.110Z,102718.69
2023-03-02T05:11:22.378Z,102724.91
2023-03-02T05:13:50.879Z,102725.50
2023-03-02T05:16:18.016Z,102722.22
2023-03-02T05:18:44.659Z,102719.66
2023-03-02T05:21:11.556Z,102715.91
2023-03-02T05:23:38.126Z,102718.59
2023-03-02T05:26:04.821Z,102716.84
2023-03-02T05:28:31.443Z,102715.91
2023-03-02T05:30:58.043Z,102711.25
2023-03-02T05:33:24.797Z,102716.59
2023-03-02T05:35:51.410Z,102704.16
2023-03-02T05:38:18.052Z,102704.97
2023-03-02T05:40:44.842Z,102699.75
2023-03-02T05:43:16.495Z,102707.72
2023-03-02T05:45:43.169Z,102697.78
2023-03-02T05:48:10.960Z,102695.09
2023-03-02T05:50:37.605Z,102702.06
2023-03-02T05:53:04.390Z,102694.94
2023-03-02T05:55:31.213Z,102690.47
2023-03-02T05:57:57.817Z,102701.34
2023-03-02T06:00:24.516Z,102696.59
2023-03-02T06:02:51.120Z,102696.72
2023-03-02T06:05:19.587Z,102695.72
2023-03-02T06:07:46.249Z,102699.09
2023-03-02T06:10:13.598Z,102691.25
2023-03-02T06:12:40.837Z,102690.59
2023-03-02T06:15:08.496Z,102690.38
2023-03-02T06:17:35.102Z,102696.66
2023-03-02T06:20:02.033Z,102689.44
2023-03-02T06:22:28.607Z,102702.84
2023-03-02T06:24:55.316Z,102697.44
2023-03-02T06:27:21.939Z,102696.59
2023-03-02T06:29:51.552Z,102692.78
2023-03-02T06:32:18.243Z,102701.72
2023-03-02T06:34:47.798Z,102695.56
2023-03-02T06:37:14.369Z,102691.34
2023-03-02T06:39:40.919Z,102691.06
2023-03-02T06:42:07.482Z,102700.63
2023-03-02T06:44:34.025Z,102699.81
2023-03-02T06:47:00.633Z,102699.66
2023-03-02T06:49:27.457Z,102701.50
2023-03-02T06:51:54.069Z,102697.16
2023-03-02T06:54:22.594Z,102699.78
2023-03-02T06:56:50.342Z,102699.72
2023-03-02T06:59:16.982Z,102709.31
2023-03-02T07:01:43.669Z,102724.66
2023-03-02T07:06:45.620Z,102709.31
2023-03-02T07:09:12.217Z,102709.56
2023-03-02T07:11:38.826Z,102703.53
2023-03-02T07:14:05.578Z,102703.91
2023-03-02T07:16:33.845Z,102696.44
2023-03-02T07:19:01.044Z,102698.88
2023-03-02T07:21:27.617Z,102702.72
2023-03-02T07:23:54.199Z,102697.66
2023-03-02T07:26:20.766Z,102706.75
2023-03-02T07:28:47.331Z,102699.72
2023-03-02T07:31:13.968Z,102705.13
2023-03-02T07:33:40.874Z,102706.94
2023-03-02T07:36:08.396Z,102705.03
2023-03-02T07:38:36.594Z,102703.25
2023-03-02T07:41:06.952Z,102711.28
2023-03-02T07:43:35.596Z,102717.44
2023-03-02T07:46:04.462Z,102710.28
2023-03-02T07:48:32.249Z,102710.25
2023-03-02T07:51:00.359Z,102710.19
2023-03-02T07:53:27.448Z,102697.75
2023-03-02T07:55:54.146Z,102704.66
2023-03-02T07:58:21.385Z,102704.66
2023-03-02T08:00:48.678Z,102702.88
2023-03-02T08:03:15.316Z,102713.59
2023-03-02T08:05:41.968Z,102711.72
2023-03-02T08:08:08.521Z,102705.56
2023-03-02T08:10:35.738Z,102722.47
2023-03-02T08:13:03.014Z,102709.91
2023-03-02T08:15:29.613Z,102711.66
2023-03-02T08:17:56.159Z,102712.38
2023-03-02T08:20:22.732Z,102714.19
2023-03-02T08:22:49.842Z,102711.41
2023-03-02T08:25:16.433Z,102708.72
2023-03-02T08:27:44.208Z,102716.75
2023-03-02T08:30:11.340Z,102707.84
2023-03-02T08:32:38.095Z,102705.06
2023-03-02T08:35:05.921Z,102700.72
2023-03-02T08:37:32.572Z,102701.50
2023-03-02T08:39:59.126Z,102703.38
2023-03-02T08:42:25.730Z,102702.41
2023-03-02T08:44:52.312Z,102700.72
2023-03-02T08:47:18.921Z,102702.53
2023-03-02T08:49:47.498Z,102707.94
2023-03-02T08:52:15.483Z,102701.63
2023-03-02T08:54:42.278Z,102704.19
2023-03-02T08:57:11.532Z,102699.69
2023-03-02T08:59:38.095Z,102698.88
2023-03-02T09:02:04.696Z,102704.22
2023-03-02T09:04:31.383Z,102704.22
2023-03-02T09:06:58.001Z,102691.81
2023-03-02T09:09:24.551Z,102698.09
2023-03-02T09:11:51.259Z,102688.34
2023-03-02T09:14:17.835Z,102688.47
2023-03-02T09:16:45.463Z,102677.81
2023-03-02T09:19:12.948Z,102685.75
2023-03-02T09:21:39.786Z,102683.16
2023-03-02T09:24:06.534Z,102684.97
2023-03-02T09:26:34.042Z,102686.88
2023-03-02T09:29:00.890Z,102682.25
2023-03-02T09:31:30.581Z,102686.69
2023-03-02T09:33:57.286Z,102692.13
2023-03-02T09:36:25.107Z,102695.75
2023-03-02T09:38:51.834Z,102693.97
2023-03-02T09:41:21.343Z,102694.03
2023-03-02T09:44:09.727Z,102696.72
2023-03-02T09:46:39.123Z,102700.16
2023-03-02T09:49:44.323Z,102693.97
2023-03-02T09:52:36.123Z,102700.25
2023-03-02T09:55:24.314Z,102699.31
2023-03-02T09:57:51.342Z,102695.66
2023-03-02T10:00:27.288Z,102692.13
2023-03-02T10:03:16.910Z,102695.78
2023-03-02T10:05:49.858Z,102691.34
2023-03-02T10:08:20.397Z,102695.88
2023-03-02T10:11:02.151Z,102692.31
2023-03-02T10:13:34.023Z,102701.22
2023-03-02T10:16:03.671Z,102690.59
2023-03-02T10:18:35.904Z,102693.28
2023-03-02T10:21:31.225Z,102695.94
2023-03-02T10:24:31.638Z,102697.69
2023-03-02T10:27:29.167Z,102692.28
2023-03-02T10:29:55.711Z,102704.84
2023-03-02T10:32:30.000Z,102698.59
2023-03-02T10:34:56.819Z,102698.63
2023-03-02T10:37:25.722Z,102709.34
2023-03-02T10:39:52.719Z,102705.91
2023-03-02T10:42:40.488Z,102706.78
2023-03-02T10:45:28.794Z,102700.63
2023-03-02T10:48:06.580Z,102706.78
2023-03-02T10:50:33.931Z,102711.28
2023-03-02T10:53:02.959Z,102712.09
2023-03-02T10:55:31.776Z,102711.28
2023-03-02T10:58:07.536Z,102700.53
2023-03-02T11:00:35.211Z,102702.38
2023-03-02T11:03:05.874Z,102699.66
2023-03-02T11:05:41.394Z,102698.81
2023-03-02T11:08:21.877Z,102699.75
2023-03-02T11:11:00.880Z,102689.00
2023-03-02T11:13:37.337Z,102691.81
2023-03-02T11:16:20.955Z,102692.63
2023-03-02T11:19:12.168Z,102698.03
2023-03-02T11:21:45.954Z,102696.16
2023-03-02T11:24:22.473Z,102692.59
2023-03-02T11:27:07.941Z,102694.34
2023-03-02T11:29:38.328Z,102683.72
2023-03-02T11:32:07.854Z,102688.19
2023-03-02T11:34:41.130Z,102675.75
2023-03-02T11:37:23.087Z,102677.50
2023-03-02T11:39:55.369Z,102685.28
2023-03-02T11:42:30.565Z,102681.91
2023-03-02T11:45:01.441Z,102676.59
2023-03-02T11:47:28.424Z,102676.56
2023-03-02T11:49:56.291Z,102675.69
2023-03-02T11:52:25.650Z,102671.38
2023-03-02T11:55:04.041Z,102669.59
2023-03-02T11:57:38.632Z,102682.09
2023-03-02T12:00:14.471Z,102682.09
2023-03-02T12:02:41.019Z,102674.13
2023-03-02T12:05:24.143Z,102674.75
2023-03-02T12:08:06.269Z,102676.66
2023-03-02T12:10:42.481Z,102674.03
2023-03-02T12:13:21.795Z,102671.47
2023-03-02T12:15:51.438Z,102673.13
2023-03-02T12:18:20.910Z,102672.34
2023-03-02T12:21:09.602Z,102670.56
2023-03-02T12:23:43.833Z,102672.31
2023-03-02T12:26:19.295Z,102658.88
2023-03-02T12:29:06.719Z,102660.75
2023-03-02T12:31:43.681Z,102653.63
2023-03-02T12:34:35.088Z,102656.19
2023-03-02T12:37:20.252Z,102650.94
2023-03-02T12:40:23.916Z,102644.72
2023-03-02T12:43:27.791Z,102649.19
2023-03-02T12:46:19.079Z,102647.38
2023-03-02T12:49:06.417Z,102653.56
2023-03-02T12:52:04.333Z,102646.38
2023-03-02T12:54:33.627Z,102653.72
2023-03-02T12:57:18.291Z,102640.25
2023-03-02T12:59:52.369Z,102635.88
2023-03-02T13:02:21.787Z,102632.28
2023-03-02T13:04:59.745Z,102622.50
2023-03-02T13:07:39.104Z,102627.97
2023-03-02T13:10:36.601Z,102625.41
2023-03-02T13:13:14.208Z,102628.09
2023-03-02T13:16:00.132Z,102615.56
2023-03-02T13:18:32.060Z,102609.31
2023-03-02T13:20:59.860Z,102608.56
2023-03-02T13:23:27.880Z,102607.66
2023-03-02T13:25:59.316Z,102613.03
2023-03-02T13:28:37.419Z,102606.81
2023-03-02T13:31:17.309Z,102602.47
2023-03-02T13:33:45.804Z,102606.88
2023-03-02T13:36:23.671Z,102604.06
2023-03-02T13:38:53.079Z,102597.03
2023-03-02T13:41:30.393Z,102605.13
2023-03-02T13:43:58.180Z,102598.91
2023-03-02T13:46:36.696Z,102602.47
2023-03-02T13:49:10.747Z,102611.38
2023-03-02T13:51:47.791Z,102598.00
2023-03-02T13:54:25.111Z,102600.69
2023-03-02T13:56:53.557Z,102598.97
2023-03-02T13:59:21.469Z,102602.63
2023-03-02T14:01:48.251Z,102586.66
2023-03-02T14:04:17.846Z,102588.47
2023-03-02T14:06:45.797Z,102584.81
2023-03-02T14:09:12.433Z,102581.09
2023-03-02T14:11:42.575Z,102582.06
2023-03-02T14:14:14.814Z,102584.72
2023-03-02T14:16:41.710Z,102571.34
2023-03-02T14:19:10.793Z,102566.16
2023-03-02T14:21:37.439Z,102566.09
2023-03-02T14:24:04.071Z,102568.84
2023-03-02T14:26:37.662Z,102568.91
2023-03-02T14:29:27.449Z,102558.16
2023-03-02T14:31:55.707Z,102568.00
2023-03-02T14:34:22.350Z,102560.03
2023-03-02T14:36:51.256Z,102561.00
2023-03-02T14:39:30.860Z,102561.88
2023-03-02T14:41:57.610Z,102553.78
2023-03-02T14:44:24.326Z,102558.44
2023-03-02T14:46:51.233Z,102554.00
2023-03-02T14:49:17.876Z,102558.59
2023-03-02T14:51:54.304Z,102549.66
2023-03-02T14:54:20.954Z,102554.97
2023-03-02T14:56:49.342Z,102554.09
2023-03-02T14:59:17.026Z,102558.50
2023-03-02T15:01:44.696Z,102558.50
2023-03-02T15:04:11.442Z,102558.59
2023-03-02T15:06:40.300Z,102558.44
2023-03-02T15:09:07.709Z,102562.19
2023-03-02T15:11:34.876Z,102560.28
2023-03-02T15:14:01.676Z,102556.78
2023-03-02T15:16:28.344Z,102562.16
2023-03-02T15:18:55.595Z,102551.41
2023-03-02T15:21:24.452Z,102553.19
2023-03-02T15:23:51.180Z,102553.22
2023-03-02T15:26:17.999Z,102544.16
2023-03-02T15:28:47.678Z,102550.53
2023-03-02T15:31:16.198Z,102545.09
2023-03-02T15:33:45.188Z,102549.63
2023-03-02T15:36:12.617Z,102542.41
2023-03-02T15:38:39.234Z,102539.72
2023-03-02T15:41:11.387Z,102541.50
2023-03-02T15:43:38.255Z,102530.75
2023-03-02T15:46:09.382Z,102534.31
2023-03-02T15:48:36.958Z,102530.75
2023-03-02T15:51:05.695Z,102529.81
2023-03-02T15:53:36.780Z,102531.69
2023-03-02T15:56:09.141Z,102529.88
2023-03-02T15:58:36.084Z,102535.25
2023-03-02T16:01:09.975Z,102526.28
2023-03-02T16:03:37.545Z,102540.59
2023-03-02T16:06:05.167Z,102540.59
2023-03-02T16:08:31.727Z,102537.88
2023-03-02T16:10:59.773Z,102538.78
2023-03-02T16:13:26.636Z,102540.56
2023-03-02T16:15:53.342Z,102544.09
2023-03-02T16:18:19.952Z,102548.59
2023-03-02T16:20:46.500Z,102539.69
2023-03-02T16:23:13.127Z,102543.22
2023-03-02T16:25:43.361Z,102538.75
2023-03-02T16:28:11.621Z,102539.63
2023-03-02T16:30:38.920Z,102538.72
2023-03-02T16:33:07.717Z,102542.31
2023-03-02T16:35:35.075Z,102542.31
2023-03-02T16:38:01.730Z,102540.47
2023-03-02T16:40:28.587Z,102543.19
2023-03-02T16:42:55.396Z,102542.25
2023-03-02T16:45:22.983Z,102547.59
2023-03-02T16:47:50.152Z,102544.94
2023-03-02T16:50:17.436Z,102545.81
2023-03-02T16:52:44.222Z,102550.22
2023-03-02T16:55:17.331Z,102553.78
2023-03-02T16:57:44.073Z,102553.78
2023-03-02T17:00:15.422Z,102559.16
2023-03-02T17:02:42.081Z,102552.91
2023-03-02T17:05:09.102Z,102552.03
2023-03-02T17:07:35.848Z,102552.03
2023-03-02T17:10:02.640Z,102554.72
2023-03-02T17:12:29.189Z,102561.88
2023-03-02T17:14:55.755Z,102568.09
2023-03-02T17:17:22.394Z,102572.53
2023-03-02T17:19:48.970Z,102565.44
2023-03-02T17:22:15.831Z,102570.78
2023-03-02T17:24:42.400Z,102568.97
2023-03-02T17:27:23.818Z,102565.44
2023-03-02T17:29:52.066Z,102571.72
2023-03-02T17:32:18.790Z,102574.34
2023-03-02T17:34:45.395Z,102570.75
2023-03-02T17:37:11.980Z,102576.09
2023-03-02T17:39:39.010Z,102574.28
2023-03-02T17:42:06.211Z,102576.03
2023-03-02T17:44:34.584Z,102582.31
2023-03-02T17:47:06.382Z,102577.81
2023-03-02T17:49:32.972Z,102584.94
2023-03-02T17:51:59.583Z,102585.00
2023-03-02T17:54:26.176Z,102586.66
2023-03-02T17:56:52.718Z,102593.84
2023-03-02T17:59:19.362Z,102598.31
2023-03-02T18:01:46.008Z,102595.59
2023-03-02T18:04:12.775Z,102597.38
2023-03-02T18:06:39.404Z,102598.25
2023-03-02T18:09:06.073Z,102599.13
2023-03-02T18:11:33.188Z,102595.53
2023-03-02T18:13:59.788Z,102593.78
2023-03-02T18:16:29.289Z,102601.81
2023-03-02T18:18:57.416Z,102604.50
2023-03-02T18:21:24.076Z,102600.88
2023-03-02T18:23:50.689Z,102599.16
2023-03-02T18:26:17.381Z,102601.81
2023-03-02T18:28:44.054Z,102599.13
2023-03-02T18:31:12.512Z,102589.28
2023-03-02T18:33:39.092Z,102599.16
2023-03-02T18:36:05.903Z,102604.47
2023-03-02T18:38:33.641Z,102605.38
2023-03-02T18:41:03.152Z,102606.16
2023-03-02T18:43:32.668Z,102609.72
2023-03-02T18:46:00.551Z,102600.88
2023-03-02T18:48:27.325Z,102606.16
2023-03-02T18:50:54.506Z,102608.84
2023-03-02T18:53:21.435Z,102609.69
2023-03-02T18:55:49.540Z,102624.91
2023-03-02T18:58:21.307Z,102621.28
2023-03-02T19:00:48.197Z,102613.16
2023-03-02T19:03:16.375Z,102619.47
2023-03-02T19:05:43.646Z,102608.69
2023-03-02T19:08:10.926Z,102618.47
2023-03-02T19:10:38.445Z,102613.13
2023-03-02T19:13:05.681Z,102611.38
2023-03-02T19:15:34.806Z,102605.94
2023-03-02T19:18:01.526Z,102605.94
2023-03-02T19:20:28.364Z,102606.81
2023-03-02T19:22:55.464Z,102600.50
2023-03-02T19:25:22.096Z,102603.97
2023-03-02T19:27:48.977Z,102598.69
2023-03-02T19:30:22.176Z,102603.97
2023-03-02T19:32:49.031Z,102605.53
2023-03-02T19:35:17.971Z,102607.44
2023-03-02T19:37:45.039Z,102611.91
2023-03-02T19:40:12.960Z,102609.09
2023-03-02T19:42:39.990Z,102603.78
2023-03-02T19:45:08.532Z,102610.00
2023-03-02T19:47:35.147Z,102612.66
2023-03-02T19:50:01.752Z,102612.59
2023-03-02T19:52:28.326Z,102622.44
2023-03-02T19:54:54.890Z,102617.06
2023-03-02T19:57:21.452Z,102623.41
2023-03-02T19:59:48.000Z,102624.25
2023-03-02T20:02:15.448Z,102625.00
2023-03-02T20:04:43.265Z,102628.47
2023-03-02T20:07:10.560Z,102635.72
2023-03-02T20:09:37.218Z,102624.97
2023-03-02T20:12:06.029Z,102632.22
2023-03-02T20:14:35.183Z,102631.25
2023-03-02T20:17:05.011Z,102638.44
2023-03-02T20:19:31.742Z,102627.63
2023-03-02T20:21:58.369Z,102630.22
2023-03-02T20:24:24.940Z,102631.06
2023-03-02T20:26:51.505Z,102632.03
2023-03-02T20:29:18.831Z,102639.09
2023-03-02T20:31:45.956Z,102632.91
2023-03-02T20:34:15.935Z,102629.41
2023-03-02T20:36:42.868Z,102625.72
2023-03-02T20:39:18.206Z,102637.22
2023-03-02T20:41:45.609Z,102631.06
2023-03-02T20:44:14.555Z,102632.03
2023-03-02T20:46:45.237Z,102633.63
2023-03-02T20:49:15.242Z,102628.28
2023-03-02T20:51:45.412Z,102629.03
2023-03-02T20:54:12.026Z,102629.81
2023-03-02T20:56:38.625Z,102637.13
2023-03-02T20:59:05.250Z,102636.41
2023-03-02T21:01:31.899Z,102635.44
2023-03-02T21:03:59.168Z,102631.06
2023-03-02T21:06:25.871Z,102628.38
2023-03-02T21:08:52.588Z,102633.66
2023-03-02T21:11:21.334Z,102640.03
2023-03-02T21:13:48.601Z,102637.97
2023-03-02T21:16:19.718Z,102638.78
2023-03-02T21:18:46.435Z,102635.06
2023-03-02T21:21:13.216Z,102636.72
2023-03-02T21:23:41.720Z,102631.25
2023-03-02T21:26:10.236Z,102633.94
2023-03-02T21:28:37.905Z,102633.34
2023-03-02T21:31:05.572Z,102635.00
2023-03-02T21:33:32.187Z,102633.44
2023-03-02T21:35:58.750Z,102633.16
2023-03-02T21:38:25.331Z,102623.16
2023-03-02T21:40:51.879Z,102620.59
2023-03-02T21:43:18.846Z,102629.16
2023-03-02T21:45:45.502Z,102626.69
2023-03-02T21:48:13.532Z,102627.44
2023-03-02T21:50:40.839Z,102620.38
2023-03-02T21:53:07.653Z,102620.06
2023-03-02T21:55:34.908Z,102624.69
2023-03-02T21:58:01.673Z,102620.13
2023-03-02T22:00:32.487Z,102634.22
2023-03-02T22:03:00.046Z,102620.16
2023-03-02T22:05:26.964Z,102625.06
2023-03-02T22:07:54.103Z,102626.97
2023-03-02T22:10:42.010Z,102618.09
2023-03-02T22:13:23.839Z,102619.81
2023-03-02T22:16:16.047Z,102621.28
2023-03-02T22:18:43.959Z,102612.53
2023-03-02T22:21:29.968Z,102617.03
2023-03-02T22:24:01.082Z,102609.09
2023-03-02T22:26:27.711Z,102610.72
2023-03-02T22:28:57.878Z,102619.78
2023-03-02T22:31:24.448Z,102619.38
2023-03-02T22:33:51.068Z,102614.25
2023-03-02T22:36:23.616Z,102617.63
2023-03-02T22:38:50.729Z,102606.81
2023-03-02T22:41:19.531Z,102618.47
2023-03-02T22:43:46.579Z,102614.06
2023-03-02T22:46:20.061Z,102608.69
2023-03-02T22:48:47.248Z,102610.47
2023-03-02T22:51:19.572Z,102610.47
2023-03-02T22:53:49.222Z,102604.31
2023-03-02T22:56:28.315Z,102612.22
2023-03-02T22:58:55.861Z,102612.00
2023-03-02T23:01:25.457Z,102606.28
2023-03-02T23:03:58.367Z,102620.59
2023-03-02T23:06:33.087Z,102612.69
2023-03-02T23:09:01.604Z,102605.69
2023-03-02T23:11:29.645Z,102608.22
2023-03-02T23:13:56.256Z,102604.69
2023-03-02T23:16:24.305Z,102608.34
2023-03-02T23:18:52.125Z,102604.44
2023-03-02T23:21:20.013Z,102611.72
2023-03-02T23:23:47.378Z,102605.34
2023-03-02T23:26:14.367Z,102616.75
2023-03-02T23:28:40.972Z,102607.91
2023-03-02T23:31:07.677Z,102609.56
2023-03-02T23:33:34.293Z,102604.44
2023-03-02T23:36:00.854Z,102604.47
2023-03-02T23:38:27.531Z,102607.72
2023-03-02T23:40:54.387Z,102599.88
2023-03-02T23:43:21.137Z,102608.56
2023-03-02T23:45:47.736Z,102606.97
2023-03-02T23:48:14.338Z,102599.16
2023-03-02T23:50:41.083Z,102613.09
2023-03-02T23:53:07.654Z,102603.38
2023-03-02T23:55:35.125Z,102606.09
2023-03-02T23:58:01.730Z,102603.16
